createdAt,value
2022-08-14T00:04:41.775Z,19.31
2022-08-14T00:09:55.496Z,19.59
2022-08-14T00:14:49.544Z,18.98
2022-08-14T00:19:49.484Z,19.17
2022-08-14T00:24:45.294Z,18.92
2022-08-14T00:29:40.621Z,18.83
2022-08-14T00:34:46.676Z,18.78
2022-08-14T00:39:43.358Z,18.30
2022-08-14T00:44:37.450Z,17.76
2022-08-14T00:49:42.632Z,18.16
2022-08-14T00:54:38.811Z,18.61
2022-08-14T00:59:36.375Z,18.72
2022-08-14T01:04:37.768Z,18.56
2022-08-14T01:09:48.417Z,18.32
2022-08-14T01:14:43.347Z,18.05
2022-08-14T01:19:54.793Z,18.47
2022-08-14T01:24:50.964Z,17.76
2022-08-14T01:30:01.477Z,18.31
2022-08-14T01:35:21.298Z,18.45
2022-08-14T01:40:15.422Z,18.31
2022-08-14T01:45:17.924Z,17.75
2022-08-14T01:50:18.958Z,17.98
2022-08-14T01:55:23.227Z,17.86
2022-08-14T02:00:18.760Z,18.06
2022-08-14T02:05:14.653Z,17.94
2022-08-14T02:10:13.279Z,17.91
2022-08-14T02:15:11.491Z,18.00
2022-08-14T02:20:08.566Z,17.77
2022-08-14T02:25:02.006Z,17.75
2022-08-14T02:30:01.106Z,17.75
2022-08-14T02:34:56.971Z,17.55
2022-08-14T02:39:53.981Z,17.66
2022-08-14T02:44:49.045Z,17.55
2022-08-14T02:49:42.927Z,17.62
2022-08-14T02:54:37.981Z,17.25
2022-08-14T02:59:33.639Z,17.53
2022-08-14T03:04:28.509Z,17.62
2022-08-14T03:09:21.831Z,17.73
2022-08-14T03:14:17.924Z,17.69
2022-08-14T03:19:12.281Z,17.57
2022-08-14T03:24:16.674Z,17.58
2022-08-14T03:29:20.659Z,17.64
2022-08-14T03:34:24.574Z,17.45
2022-08-14T03:39:32.095Z,17.23
2022-08-14T03:45:26.720Z,17.08
2022-08-14T03:49:43.111Z,16.98
2022-08-14T03:54:38.043Z,17.24
2022-08-14T03:59:35.738Z,16.99
2022-08-14T04:04:31.395Z,16.91
2022-08-14T04:09:26.881Z,16.91
2022-08-14T04:14:20.527Z,17.00
2022-08-14T04:19:17.415Z,16.83
2022-08-14T04:24:13.825Z,17.05
2022-08-14T04:29:15.303Z,16.87
2022-08-14T04:34:17.159Z,16.74
2022-08-14T04:39:32.761Z,16.92
2022-08-14T04:44:36.136Z,17.07
2022-08-14T04:49:30.831Z,17.23
2022-08-14T04:54:28.572Z,17.45
2022-08-14T04:59:22.476Z,17.37
2022-08-14T05:04:16.323Z,17.50
2022-08-14T05:09:13.965Z,17.44
2022-08-14T05:14:34.437Z,17.40
2022-08-14T05:19:29.315Z,17.34
2022-08-14T05:24:23.042Z,17.46
2022-08-14T05:29:18.006Z,17.45
2022-08-14T05:34:11.727Z,17.61
2022-08-14T05:39:06.338Z,17.72
2022-08-14T05:44:01.992Z,17.77
2022-08-14T05:48:59.710Z,17.76
2022-08-14T05:54:01.770Z,17.94
2022-08-14T05:59:07.407Z,18.07
2022-08-14T06:04:04.566Z,18.23
2022-08-14T06:08:58.405Z,18.33
2022-08-14T06:13:51.694Z,18.39
2022-08-14T06:18:52.576Z,18.37
2022-08-14T06:23:49.087Z,18.55
2022-08-14T06:28:45.665Z,18.66
2022-08-14T06:35:04.790Z,18.51
2022-08-14T06:38:54.714Z,18.66
2022-08-14T06:43:49.124Z,18.93
2022-08-14T06:48:42.581Z,18.92
2022-08-14T06:53:35.896Z,18.89
2022-08-14T06:58:32.108Z,19.37
2022-08-14T07:03:43.763Z,19.29
2022-08-14T07:08:37.807Z,19.57
2022-08-14T07:13:32.974Z,19.67
2022-08-14T07:18:29.177Z,19.70
2022-08-14T07:23:24.329Z,19.81
2022-08-14T07:28:23.501Z,19.87
2022-08-14T07:33:18.585Z,20.12
2022-08-14T07:38:21.709Z,20.50
2022-08-14T07:43:16.473Z,20.76
2022-08-14T07:48:14.953Z,21.05
2022-08-14T07:53:11.325Z,21.37
2022-08-14T07:58:05.005Z,21.37
2022-08-14T08:03:19.522Z,21.33
2022-08-14T08:08:26.564Z,21.59
2022-08-14T08:13:24.145Z,21.86
2022-08-14T08:18:20.593Z,22.18
2022-08-14T08:23:28.203Z,22.62
2022-08-14T08:28:34.342Z,22.79
2022-08-14T08:33:32.227Z,22.92
2022-08-14T08:39:16.835Z,23.23
2022-08-14T08:43:45.810Z,23.52
2022-08-14T08:48:53.733Z,23.46
2022-08-14T08:53:57.642Z,23.64
2022-08-14T08:58:50.904Z,23.61
2022-08-14T09:03:45.088Z,23.81
2022-08-14T09:08:38.515Z,24.10
2022-08-14T09:13:33.324Z,24.32
2022-08-14T09:18:28.090Z,24.56
2022-08-14T09:23:27.467Z,24.49
2022-08-14T09:28:28.561Z,24.56
2022-08-14T09:33:56.560Z,24.61
2022-08-14T09:39:23.354Z,24.75
2022-08-14T09:44:46.059Z,24.93
2022-08-14T09:49:52.167Z,24.91
2022-08-14T09:54:49.757Z,25.15
2022-08-14T09:59:50.454Z,25.42
2022-08-14T10:04:46.337Z,25.55
2022-08-14T10:10:00.074Z,25.38
2022-08-14T10:14:55.703Z,25.58
2022-08-14T10:19:50.957Z,25.90
2022-08-14T10:24:46.314Z,25.88
2022-08-14T10:29:48.734Z,26.12
2022-08-14T10:34:42.879Z,26.17
2022-08-14T10:39:40.967Z,26.31
2022-08-14T10:44:53.186Z,26.39
2022-08-14T10:49:59.889Z,26.51
2022-08-14T10:55:08.238Z,26.29
2022-08-14T11:00:13.626Z,26.33
2022-08-14T11:05:18.713Z,26.47
2022-08-14T11:10:15.844Z,26.55
2022-08-14T11:15:10.779Z,26.45
2022-08-14T11:20:13.840Z,26.63
2022-08-14T11:25:14.916Z,26.81
2022-08-14T11:30:50.981Z,26.81
2022-08-14T11:35:44.324Z,27.14
2022-08-14T11:40:43.967Z,26.88
2022-08-14T11:45:42.161Z,26.83
2022-08-14T11:50:38.227Z,26.87
2022-08-14T11:55:38.847Z,26.89
2022-08-14T12:00:39.514Z,26.66
2022-08-14T12:05:42.504Z,26.76
2022-08-14T12:10:42.487Z,26.66
2022-08-14T12:15:37.934Z,26.61
2022-08-14T12:20:45.920Z,26.54
2022-08-14T12:25:46.670Z,26.55
2022-08-14T12:30:56.853Z,26.46
2022-08-14T12:35:56.236Z,26.54
2022-08-14T12:40:52.374Z,26.63
2022-08-14T12:45:50.646Z,26.55
2022-08-14T12:50:49.891Z,26.49
2022-08-14T12:56:18.836Z,26.39
2022-08-14T13:01:20.597Z,26.25
2022-08-14T13:06:16.403Z,26.15
2022-08-14T13:11:14.742Z,26.17
2022-08-14T13:16:20.173Z,26.37
2022-08-14T13:21:16.794Z,26.42
2022-08-14T13:26:10.237Z,26.57
2022-08-14T13:31:11.083Z,26.68
2022-08-14T13:36:06.376Z,26.70
2022-08-14T13:41:01.339Z,26.77
2022-08-14T13:45:59.696Z,26.89
2022-08-14T13:50:58.520Z,26.95
2022-08-14T13:55:58.442Z,26.98
2022-08-14T14:00:54.906Z,27.01
2022-08-14T14:05:54.230Z,27.02
2022-08-14T14:10:49.973Z,26.98
2022-08-14T14:15:48.505Z,27.09
2022-08-14T14:20:55.074Z,27.05
2022-08-14T14:25:56.935Z,27.05
2022-08-14T14:30:53.889Z,27.10
2022-08-14T14:35:48.923Z,27.17
2022-08-14T14:40:54.480Z,27.08
2022-08-14T14:45:56.911Z,26.95
2022-08-14T14:50:53.038Z,27.13
2022-08-14T14:55:59.507Z,27.20
2022-08-14T15:01:08.743Z,27.20
2022-08-14T15:06:04.853Z,27.15
2022-08-14T15:11:01.719Z,27.18
2022-08-14T15:15:55.623Z,27.26
2022-08-14T15:20:48.979Z,27.30
2022-08-14T15:25:53.029Z,27.21
2022-08-14T15:30:51.186Z,27.19
2022-08-14T15:35:52.113Z,27.18
2022-08-14T15:40:56.202Z,26.94
2022-08-14T15:45:51.487Z,26.87
2022-08-14T15:50:45.547Z,26.71
2022-08-14T15:55:42.637Z,26.54
2022-08-14T16:00:55.067Z,26.44
2022-08-14T16:05:49.837Z,26.43
2022-08-14T16:10:46.080Z,26.39
2022-08-14T16:15:45.444Z,26.24
2022-08-14T16:20:57.186Z,26.20
2022-08-14T16:25:52.931Z,25.95
2022-08-14T16:30:48.746Z,26.01
2022-08-14T16:35:59.404Z,25.94
2022-08-14T16:41:16.528Z,25.97
2022-08-14T16:46:11.323Z,25.93
2022-08-14T16:51:06.732Z,25.75
2022-08-14T16:56:17.215Z,25.65
2022-08-14T17:01:23.253Z,25.63
2022-08-14T17:06:46.037Z,25.73
2022-08-14T17:11:56.219Z,25.74
2022-08-14T17:16:56.658Z,25.73
2022-08-14T17:21:53.441Z,25.67
2022-08-14T17:26:55.141Z,25.44
2022-08-14T17:31:58.796Z,25.47
2022-08-14T17:36:56.440Z,25.35
2022-08-14T17:42:01.688Z,25.48
2022-08-14T17:46:59.619Z,25.30
2022-08-14T17:52:03.800Z,25.25
2022-08-14T17:57:12.934Z,25.08
2022-08-14T18:02:09.451Z,25.08
2022-08-14T18:07:50.435Z,24.94
2022-08-14T18:12:36.954Z,24.74
2022-08-14T18:17:31.589Z,24.81
2022-08-14T18:22:32.201Z,24.57
2022-08-14T18:27:41.656Z,24.45
2022-08-14T18:32:47.548Z,24.55
2022-08-14T18:37:55.969Z,24.45
2022-08-14T18:43:03.231Z,24.52
2022-08-14T18:48:33.247Z,24.50
2022-08-14T18:53:57.025Z,24.45
2022-08-14T18:58:58.853Z,24.58
2022-08-14T19:03:53.394Z,24.61
2022-08-14T19:08:49.346Z,24.47
2022-08-14T19:13:48.264Z,24.45
2022-08-14T19:18:53.155Z,24.39
2022-08-14T19:24:30.065Z,24.25
2022-08-14T19:29:36.126Z,24.30
2022-08-14T19:34:48.145Z,24.16
2022-08-14T19:39:53.866Z,24.10
2022-08-14T19:44:50.153Z,24.12
2022-08-14T19:50:08.636Z,24.05
2022-08-14T19:55:02.714Z,24.07
2022-08-14T20:00:28.701Z,23.98
2022-08-14T20:05:24.298Z,23.99
2022-08-14T20:11:06.627Z,24.10
2022-08-14T20:15:47.177Z,24.20
2022-08-14T20:20:43.913Z,24.11
2022-08-14T20:25:56.380Z,24.18
2022-08-14T20:30:53.731Z,24.23
2022-08-14T20:35:53.773Z,24.11
2022-08-14T20:40:52.748Z,23.97
2022-08-14T20:45:50.170Z,24.07
2022-08-14T20:50:45.531Z,24.11
2022-08-14T20:55:45.192Z,23.92
2022-08-14T21:00:52.611Z,23.90
2022-08-14T21:05:47.686Z,23.93
2022-08-14T21:10:53.192Z,24.02
2022-08-14T21:15:58.118Z,23.98
2022-08-14T21:20:53.359Z,24.03
2022-08-14T21:25:46.750Z,23.99
2022-08-14T21:30:50.972Z,24.03
2022-08-14T21:35:46.595Z,23.92
2022-08-14T21:40:46.415Z,23.94
2022-08-14T21:45:39.860Z,23.90
2022-08-14T21:50:39.568Z,23.75
2022-08-14T21:55:49.508Z,23.80
2022-08-14T22:00:46.404Z,23.51
2022-08-14T22:05:41.142Z,23.38
2022-08-14T22:10:37.088Z,23.57
2022-08-14T22:15:32.437Z,23.57
2022-08-14T22:20:29.142Z,23.54
2022-08-14T22:25:22.798Z,23.68
2022-08-14T22:30:27.184Z,23.58
2022-08-14T22:35:23.429Z,23.62
2022-08-14T22:40:56.723Z,23.24
2022-08-14T22:45:36.370Z,23.29
2022-08-14T22:50:33.745Z,23.27
2022-08-14T22:55:28.097Z,23.30
2022-08-14T23:00:25.666Z,23.19
2022-08-14T23:05:40.279Z,23.15
2022-08-14T23:10:40.469Z,23.09
2022-08-14T23:15:37.380Z,23.02
2022-08-14T23:20:31.882Z,23.02
2022-08-14T23:25:56.666Z,23.02
2022-08-14T23:30:49.016Z,23.06
2022-08-14T23:35:59.246Z,23.01
2022-08-14T23:40:53.306Z,22.99
2022-08-14T23:45:56.408Z,23.00
2022-08-14T23:50:52.937Z,23.04
2022-08-14T23:55:57.050Z,23.05
